createdAt,value
2022-11-07T00:00:06.688Z,0.00
2022-11-07T00:01:06.667Z,0.00
2022-11-07T00:02:06.742Z,0.00
2022-11-07T00:03:06.690Z,0.00
2022-11-07T00:04:06.670Z,0.00
2022-11-07T00:05:06.635Z,0.00
2022-11-07T00:06:06.610Z,0.00
2022-11-07T00:07:06.599Z,0.00
2022-11-07T00:08:06.588Z,0.00
2022-11-07T00:09:06.576Z,0.00
2022-11-07T00:10:06.588Z,0.00
2022-11-07T00:11:06.563Z,0.00
2022-11-07T00:12:06.548Z,0.00
2022-11-07T00:13:06.537Z,0.00
2022-11-07T00:14:06.527Z,0.00
2022-11-07T00:15:06.508Z,0.00
2022-11-07T00:16:06.517Z,0.00
2022-11-07T00:17:06.490Z,0.00
2022-11-07T00:18:06.478Z,0.00
2022-11-07T00:19:06.468Z,0.00
2022-11-07T00:20:06.458Z,0.00
2022-11-07T00:21:06.468Z,0.00
2022-11-07T00:22:06.436Z,0.00
2022-11-07T00:23:06.418Z,0.00
2022-11-07T00:24:06.409Z,0.00
2022-11-07T00:25:06.398Z,0.00
2022-11-07T00:26:06.389Z,0.00
2022-11-07T00:27:06.438Z,0.00
2022-11-07T00:28:06.369Z,0.00
2022-11-07T00:29:06.357Z,0.00
2022-11-07T00:30:06.348Z,0.00
2022-11-07T00:31:06.328Z,0.00
2022-11-07T00:32:06.327Z,0.00
2022-11-07T00:33:06.325Z,0.00
2022-11-07T00:34:06.297Z,0.00
2022-11-07T00:35:06.286Z,0.00
2022-11-07T00:36:06.285Z,0.00
2022-11-07T00:37:06.260Z,0.00
2022-11-07T00:38:06.281Z,0.00
2022-11-07T00:39:06.237Z,0.00
2022-11-07T00:40:06.237Z,0.00
2022-11-07T00:41:06.223Z,0.00
2022-11-07T00:42:06.215Z,0.00
2022-11-07T00:43:06.203Z,0.00
2022-11-07T00:44:06.208Z,0.00
2022-11-07T00:45:06.169Z,0.00
2022-11-07T00:46:06.171Z,0.00
2022-11-07T00:47:06.147Z,0.00
2022-11-07T00:48:06.138Z,0.00
2022-11-07T00:49:06.129Z,0.00
2022-11-07T00:50:06.137Z,0.00
2022-11-07T00:51:06.108Z,0.00
2022-11-07T00:52:06.097Z,0.00
2022-11-07T00:53:06.077Z,0.00
2022-11-07T00:54:06.078Z,0.00
2022-11-07T00:55:06.060Z,0.00
2022-11-07T00:56:06.078Z,0.00
2022-11-07T00:57:06.037Z,0.00
2022-11-07T00:58:09.834Z,0.00
2022-11-07T00:59:07.008Z,0.00
2022-11-07T01:00:06.007Z,0.00
2022-11-07T01:01:05.989Z,0.00
2022-11-07T01:02:06.088Z,0.00
2022-11-07T01:03:05.967Z,0.00
2022-11-07T01:04:05.957Z,0.00
2022-11-07T01:05:05.948Z,0.00
2022-11-07T01:06:05.937Z,0.00
2022-11-07T01:07:05.926Z,0.00
2022-11-07T01:08:05.936Z,0.00
2022-11-07T01:09:05.899Z,0.00
2022-11-07T01:10:05.895Z,0.00
2022-11-07T01:11:05.880Z,0.00
2022-11-07T01:12:05.869Z,0.00
2022-11-07T01:13:05.877Z,0.00
2022-11-07T01:14:05.848Z,0.00
2022-11-07T01:15:05.836Z,0.00
2022-11-07T01:16:05.828Z,0.00
2022-11-07T01:17:05.808Z,0.00
2022-11-07T01:18:05.808Z,0.00
2022-11-07T01:19:05.810Z,0.00
2022-11-07T01:20:05.787Z,0.00
2022-11-07T01:21:05.767Z,0.00
2022-11-07T01:22:05.757Z,0.00
2022-11-07T01:23:05.747Z,0.00
2022-11-07T01:24:05.758Z,0.00
2022-11-07T01:25:05.717Z,0.00
2022-11-07T01:26:05.720Z,0.00
2022-11-07T01:27:05.697Z,0.00
2022-11-07T01:28:05.692Z,0.00
2022-11-07T01:29:05.679Z,0.00
2022-11-07T01:30:05.689Z,0.00
2022-11-07T01:31:05.667Z,0.00
2022-11-07T01:32:05.648Z,0.00
2022-11-07T01:33:05.627Z,0.00
2022-11-07T01:34:05.626Z,0.00
2022-11-07T01:35:05.609Z,0.00
2022-11-07T01:36:06.204Z,0.00
2022-11-07T01:37:05.588Z,0.00
2022-11-07T01:38:05.606Z,0.00
2022-11-07T01:39:05.563Z,0.00
2022-11-07T01:40:05.564Z,0.00
2022-11-07T01:41:05.541Z,0.00
2022-11-07T01:42:05.559Z,0.00
2022-11-07T01:43:05.519Z,0.00
2022-11-07T01:44:05.509Z,0.00
2022-11-07T01:45:05.497Z,0.00
2022-11-07T01:46:05.488Z,0.00
2022-11-07T01:47:05.477Z,0.00
2022-11-07T01:48:05.507Z,0.00
2022-11-07T01:49:05.456Z,0.00
2022-11-07T01:50:05.437Z,0.00
2022-11-07T01:51:05.430Z,0.00
2022-11-07T01:52:05.418Z,0.00
2022-11-07T01:53:05.428Z,0.00
2022-11-07T01:54:05.400Z,0.00
2022-11-07T01:55:05.389Z,0.00
2022-11-07T01:56:05.368Z,0.00
2022-11-07T01:57:05.368Z,0.00
2022-11-07T01:58:05.348Z,0.00
2022-11-07T01:59:05.359Z,0.00
2022-11-07T02:00:05.328Z,0.00
2022-11-07T02:01:05.318Z,0.00
2022-11-07T02:02:05.476Z,0.00
2022-11-07T02:03:05.385Z,0.00
2022-11-07T02:04:05.311Z,0.00
2022-11-07T02:05:05.282Z,0.00
2022-11-07T02:06:05.258Z,0.00
2022-11-07T02:07:05.250Z,0.00
2022-11-07T02:08:05.237Z,0.00
2022-11-07T02:09:05.228Z,0.00
2022-11-07T02:10:05.239Z,0.00
2022-11-07T02:11:05.212Z,0.00
2022-11-07T02:12:05.198Z,0.00
2022-11-07T02:13:05.185Z,0.00
2022-11-07T02:14:05.169Z,0.00
2022-11-07T02:15:05.169Z,0.00
2022-11-07T02:16:05.192Z,0.00
2022-11-07T02:17:05.138Z,0.00
2022-11-07T02:18:05.129Z,0.00
2022-11-07T02:19:05.117Z,0.00
2022-11-07T02:20:05.105Z,0.00
2022-11-07T02:21:05.097Z,0.00
2022-11-07T02:22:05.096Z,0.00
2022-11-07T02:23:05.068Z,0.00
2022-11-07T02:24:05.059Z,0.00
2022-11-07T02:25:05.053Z,0.00
2022-11-07T02:26:05.031Z,0.00
2022-11-07T02:27:05.047Z,0.00
2022-11-07T02:28:05.025Z,0.00
2022-11-07T02:29:05.016Z,0.00
2022-11-07T02:30:04.988Z,0.00
2022-11-07T02:31:04.978Z,0.00
2022-11-07T02:32:04.971Z,0.00
2022-11-07T02:33:04.986Z,0.00
2022-11-07T02:34:04.949Z,0.00
2022-11-07T02:35:04.937Z,0.00
2022-11-07T02:36:04.925Z,0.00
2022-11-07T02:37:04.917Z,0.00
2022-11-07T02:38:04.897Z,0.00
2022-11-07T02:39:04.915Z,0.00
2022-11-07T02:40:04.878Z,0.00
2022-11-07T02:41:04.869Z,0.00
2022-11-07T02:42:04.857Z,0.00
2022-11-07T02:43:04.848Z,0.00
2022-11-07T02:44:04.835Z,0.00
2022-11-07T02:45:04.846Z,0.00
2022-11-07T02:46:04.817Z,0.00
2022-11-07T02:47:04.808Z,0.00
2022-11-07T02:48:04.788Z,0.00
2022-11-07T02:49:04.806Z,0.00
2022-11-07T02:50:04.787Z,0.00
2022-11-07T02:51:04.766Z,0.00
2022-11-07T02:52:04.745Z,0.00
2022-11-07T02:53:04.737Z,0.00
2022-11-07T02:54:04.717Z,0.00
2022-11-07T02:55:04.718Z,0.00
2022-11-07T02:56:04.725Z,0.00
2022-11-07T02:57:04.696Z,0.00
2022-11-07T02:58:04.677Z,0.00
2022-11-07T02:59:04.668Z,0.00
2022-11-07T03:00:04.657Z,0.00
2022-11-07T03:01:04.676Z,0.00
2022-11-07T03:02:04.714Z,0.00
2022-11-07T03:03:04.630Z,0.00
2022-11-07T03:04:04.616Z,0.00
2022-11-07T03:05:04.605Z,0.00
2022-11-07T03:06:04.597Z,0.00
2022-11-07T03:07:04.607Z,0.00
2022-11-07T03:08:04.568Z,0.00
2022-11-07T03:09:04.557Z,0.00
2022-11-07T03:10:04.539Z,0.00
2022-11-07T03:11:04.535Z,0.00
2022-11-07T03:12:04.525Z,0.00
2022-11-07T03:13:04.538Z,0.00
2022-11-07T03:14:04.498Z,0.00
2022-11-07T03:15:04.558Z,0.00
2022-11-07T03:16:04.487Z,0.00
2022-11-07T03:17:04.467Z,0.00
2022-11-07T03:18:04.456Z,0.00
2022-11-07T03:19:04.467Z,0.00
2022-11-07T03:20:04.428Z,0.00
2022-11-07T03:21:04.437Z,0.00
2022-11-07T03:22:04.407Z,0.00
2022-11-07T03:23:04.407Z,0.00
2022-11-07T03:24:04.389Z,0.00
2022-11-07T03:25:04.426Z,0.00
2022-11-07T03:26:04.384Z,0.00
2022-11-07T03:27:04.356Z,0.00
2022-11-07T03:28:04.350Z,0.00
2022-11-07T03:29:04.336Z,0.00
2022-11-07T03:30:04.347Z,0.00
2022-11-07T03:31:04.350Z,0.00
2022-11-07T03:32:04.298Z,0.00
2022-11-07T03:33:04.290Z,0.00
2022-11-07T03:34:04.277Z,0.00
2022-11-07T03:35:04.268Z,0.00
2022-11-07T03:36:04.264Z,0.00
2022-11-07T03:37:04.269Z,0.00
2022-11-07T03:38:04.229Z,0.00
2022-11-07T03:39:04.225Z,0.00
2022-11-07T03:40:04.208Z,0.00
2022-11-07T03:41:04.197Z,0.00
2022-11-07T03:42:04.188Z,0.00
2022-11-07T03:43:04.197Z,0.00
2022-11-07T03:44:04.161Z,0.00
2022-11-07T03:45:04.157Z,0.00
2022-11-07T03:46:04.160Z,0.00
2022-11-07T03:47:04.136Z,0.00
2022-11-07T03:48:04.125Z,0.00
2022-11-07T03:49:04.138Z,0.00
2022-11-07T03:50:04.097Z,0.00
2022-11-07T03:51:04.095Z,0.00
2022-11-07T03:52:04.078Z,0.00
2022-11-07T03:53:04.069Z,0.00
2022-11-07T03:54:04.075Z,0.00
2022-11-07T03:55:04.046Z,0.00
2022-11-07T03:56:04.038Z,0.00
2022-11-07T03:57:04.018Z,0.00
2022-11-07T03:58:04.008Z,0.00
2022-11-07T03:59:03.999Z,0.00
2022-11-07T04:00:04.008Z,0.00
2022-11-07T04:01:03.978Z,0.00
2022-11-07T04:02:04.099Z,0.00
2022-11-07T04:03:04.056Z,0.00
2022-11-07T04:04:03.941Z,0.00
2022-11-07T04:05:03.958Z,0.00
2022-11-07T04:06:03.928Z,0.00
2022-11-07T04:07:03.907Z,0.00
2022-11-07T04:08:03.896Z,0.00
2022-11-07T04:09:03.888Z,0.00
2022-11-07T04:10:03.871Z,0.00
2022-11-07T04:11:03.953Z,0.00
2022-11-07T04:12:03.857Z,0.00
2022-11-07T04:13:03.847Z,0.00
2022-11-07T04:14:03.829Z,0.00
2022-11-07T04:15:03.817Z,0.00
2022-11-07T04:16:03.817Z,0.00
2022-11-07T04:17:03.818Z,0.00
2022-11-07T04:18:03.788Z,0.00
2022-11-07T04:19:03.767Z,0.00
2022-11-07T04:20:03.758Z,0.00
2022-11-07T04:21:03.762Z,0.00
2022-11-07T04:22:03.739Z,0.00
2022-11-07T04:23:03.748Z,0.00
2022-11-07T04:24:03.719Z,0.00
2022-11-07T04:25:03.707Z,0.00
2022-11-07T04:26:03.708Z,0.00
2022-11-07T04:27:03.687Z,0.00
2022-11-07T04:28:03.667Z,0.00
2022-11-07T04:29:03.692Z,0.00
2022-11-07T04:30:03.647Z,0.00
2022-11-07T04:31:03.650Z,0.00
2022-11-07T04:32:03.629Z,0.00
2022-11-07T04:33:03.617Z,0.00
2022-11-07T04:34:03.598Z,0.00
2022-11-07T04:35:03.616Z,0.00
2022-11-07T04:36:03.588Z,0.00
2022-11-07T04:37:03.577Z,0.00
2022-11-07T04:38:03.557Z,0.00
2022-11-07T04:39:03.549Z,0.00
2022-11-07T04:40:03.535Z,0.00
2022-11-07T04:41:03.549Z,0.00
2022-11-07T04:42:03.515Z,0.00
2022-11-07T04:43:03.506Z,0.00
2022-11-07T04:44:03.488Z,0.00
2022-11-07T04:45:03.486Z,0.00
2022-11-07T04:46:03.497Z,0.00
2022-11-07T04:47:03.457Z,0.00
2022-11-07T04:48:03.446Z,0.00
2022-11-07T04:49:03.438Z,0.00
2022-11-07T04:50:03.426Z,0.00
2022-11-07T04:51:03.417Z,0.00
2022-11-07T04:52:03.459Z,0.00
2022-11-07T04:53:03.396Z,0.00
2022-11-07T04:54:03.378Z,0.00
2022-11-07T04:55:03.368Z,0.00
2022-11-07T04:56:03.367Z,0.00
2022-11-07T04:57:03.346Z,0.00
2022-11-07T04:58:03.362Z,0.00
2022-11-07T04:59:03.325Z,0.00
2022-11-07T05:00:03.308Z,0.00
2022-11-07T05:01:03.305Z,0.00
2022-11-07T05:02:03.392Z,0.00
2022-11-07T05:03:03.297Z,0.00
2022-11-07T05:04:03.286Z,0.00
2022-11-07T05:05:03.262Z,0.00
2022-11-07T05:06:03.257Z,0.00
2022-11-07T05:07:03.239Z,0.00
2022-11-07T05:08:03.217Z,0.00
2022-11-07T05:09:03.207Z,0.00
2022-11-07T05:10:03.211Z,0.00
2022-11-07T05:11:03.187Z,0.00
2022-11-07T05:12:03.169Z,0.00
2022-11-07T05:13:03.165Z,0.00
2022-11-07T05:14:03.151Z,0.00
2022-11-07T05:15:03.166Z,0.00
2022-11-07T05:16:03.137Z,0.00
2022-11-07T05:17:03.118Z,0.00
2022-11-07T05:18:03.107Z,0.00
2022-11-07T05:19:03.097Z,0.00
2022-11-07T05:20:03.084Z,0.00
2022-11-07T05:21:03.097Z,0.00
2022-11-07T05:22:03.057Z,0.00
2022-11-07T05:23:03.057Z,0.00
2022-11-07T05:24:03.046Z,0.00
2022-11-07T05:25:03.028Z,0.00
2022-11-07T05:26:03.036Z,0.00
2022-11-07T05:27:03.028Z,0.00
2022-11-07T05:28:02.989Z,0.00
2022-11-07T05:29:02.987Z,0.00
2022-11-07T05:30:02.967Z,0.00
2022-11-07T05:31:02.967Z,0.00
2022-11-07T05:32:03.009Z,0.00
2022-11-07T05:33:02.938Z,0.00
2022-11-07T05:34:02.927Z,0.00
2022-11-07T05:35:02.917Z,0.00
2022-11-07T05:36:02.918Z,0.00
2022-11-07T05:37:02.897Z,0.00
2022-11-07T05:38:02.910Z,0.00
2022-11-07T05:39:02.878Z,0.00
2022-11-07T05:40:02.857Z,0.00
2022-11-07T05:41:02.856Z,0.00
2022-11-07T05:42:02.837Z,0.00
2022-11-07T05:43:02.851Z,0.00
2022-11-07T05:44:02.809Z,0.00
2022-11-07T05:45:02.807Z,0.00
2022-11-07T05:46:02.810Z,0.00
2022-11-07T05:47:02.788Z,0.00
2022-11-07T05:48:02.767Z,0.00
2022-11-07T05:49:02.777Z,0.00
2022-11-07T05:50:02.748Z,0.00
2022-11-07T05:51:02.737Z,0.00
2022-11-07T05:52:02.725Z,0.00
2022-11-07T05:53:02.792Z,0.00
2022-11-07T05:54:02.698Z,0.00
2022-11-07T05:55:02.707Z,0.00
2022-11-07T05:56:02.689Z,0.00
2022-11-07T05:57:02.670Z,0.00
2022-11-07T05:58:06.840Z,0.00
2022-11-07T05:59:02.646Z,0.00
2022-11-07T06:00:02.660Z,0.00
2022-11-07T06:01:02.633Z,0.00
2022-11-07T06:02:09.796Z,0.00
2022-11-07T06:03:02.637Z,0.00
2022-11-07T06:04:05.216Z,0.00
2022-11-07T06:05:02.583Z,0.00
2022-11-07T06:06:02.592Z,0.00
2022-11-07T06:07:02.562Z,0.00
2022-11-07T06:08:02.563Z,0.00
2022-11-07T06:09:02.539Z,0.00
2022-11-07T06:10:02.532Z,0.00
2022-11-07T06:11:02.510Z,0.00
2022-11-07T06:12:02.522Z,0.00
2022-11-07T06:13:02.497Z,0.00
2022-11-07T06:14:02.481Z,0.00
2022-11-07T06:15:02.463Z,0.00
2022-11-07T06:16:02.460Z,0.00
2022-11-07T06:17:02.442Z,0.00
2022-11-07T06:18:02.456Z,0.00
2022-11-07T06:19:02.420Z,5.62
2022-11-07T06:20:02.419Z,5.62
2022-11-07T06:21:02.395Z,5.62
2022-11-07T06:22:02.391Z,5.62
2022-11-07T06:23:02.376Z,5.62
2022-11-07T06:24:03.468Z,5.62
2022-11-07T06:25:02.355Z,5.62
2022-11-07T06:26:02.342Z,5.62
2022-11-07T06:27:02.334Z,5.62
2022-11-07T06:28:02.320Z,11.25
2022-11-07T06:29:02.310Z,11.25
2022-11-07T06:30:02.325Z,11.25
2022-11-07T06:31:02.286Z,11.25
2022-11-07T06:32:02.273Z,11.25
2022-11-07T06:33:02.261Z,11.25
2022-11-07T06:34:02.256Z,11.25
2022-11-07T06:35:02.242Z,11.25
2022-11-07T06:36:02.283Z,11.25
2022-11-07T06:37:03.511Z,16.88
2022-11-07T06:38:02.213Z,16.88
2022-11-07T06:39:02.200Z,22.50
2022-11-07T06:40:02.273Z,22.50
2022-11-07T06:41:02.173Z,22.50
2022-11-07T06:42:02.194Z,28.12
2022-11-07T06:43:02.152Z,28.12
2022-11-07T06:44:02.143Z,28.12
2022-11-07T06:45:02.167Z,33.75
2022-11-07T06:46:02.113Z,45.00
2022-11-07T06:47:02.102Z,45.00
2022-11-07T06:48:02.112Z,45.00
2022-11-07T06:49:02.072Z,50.62
2022-11-07T06:50:02.073Z,50.62
2022-11-07T06:51:02.052Z,50.62
2022-11-07T06:52:02.055Z,50.62
2022-11-07T06:53:02.042Z,45.00
2022-11-07T06:54:02.043Z,45.00
2022-11-07T06:55:02.015Z,45.00
2022-11-07T06:56:02.008Z,45.00
2022-11-07T06:57:01.996Z,39.38
2022-11-07T06:58:01.983Z,39.38
2022-11-07T06:59:01.978Z,39.38
2022-11-07T07:00:02.037Z,39.38
2022-11-07T07:01:01.981Z,39.38
2022-11-07T07:02:01.975Z,39.38
2022-11-07T07:03:02.017Z,45.00
2022-11-07T07:04:01.916Z,45.00
2022-11-07T07:05:01.907Z,39.38
2022-11-07T07:06:01.912Z,39.38
2022-11-07T07:07:01.884Z,45.00
2022-11-07T07:08:01.874Z,45.00
2022-11-07T07:09:01.854Z,45.00
2022-11-07T07:10:01.866Z,50.62
2022-11-07T07:11:01.833Z,56.25
2022-11-07T07:12:01.849Z,56.25
2022-11-07T07:13:01.803Z,61.88
2022-11-07T07:14:02.614Z,67.50
2022-11-07T07:15:01.792Z,67.50
2022-11-07T07:16:01.782Z,78.75
2022-11-07T07:17:01.791Z,78.75
2022-11-07T07:18:01.755Z,61.88
2022-11-07T07:19:01.743Z,50.62
2022-11-07T07:20:01.735Z,45.00
2022-11-07T07:21:01.725Z,45.00
2022-11-07T07:22:01.714Z,50.62
2022-11-07T07:23:05.582Z,50.62
2022-11-07T07:24:01.693Z,56.25
2022-11-07T07:25:01.693Z,50.62
2022-11-07T07:26:01.664Z,56.25
2022-11-07T07:27:01.655Z,61.88
2022-11-07T07:28:01.654Z,61.88
2022-11-07T07:29:01.702Z,67.50
2022-11-07T07:30:01.624Z,73.12
2022-11-07T07:31:01.604Z,84.38
2022-11-07T07:32:01.627Z,106.88
2022-11-07T07:33:01.601Z,118.12
2022-11-07T07:34:01.604Z,140.62
2022-11-07T07:35:01.585Z,168.75
2022-11-07T07:36:01.559Z,185.62
2022-11-07T07:37:01.553Z,180.00
2022-11-07T07:38:01.535Z,320.62
2022-11-07T07:39:01.529Z,202.50
2022-11-07T07:40:01.535Z,202.50
2022-11-07T07:41:01.565Z,191.25
2022-11-07T07:42:01.495Z,180.00
2022-11-07T07:43:01.476Z,157.50
2022-11-07T07:44:01.465Z,140.62
2022-11-07T07:45:01.452Z,157.50
2022-11-07T07:46:01.445Z,157.50
2022-11-07T07:47:01.455Z,174.38
2022-11-07T07:48:01.425Z,196.88
2022-11-07T07:49:01.405Z,208.12
2022-11-07T07:50:01.396Z,208.12
2022-11-07T07:51:01.404Z,213.75
2022-11-07T07:52:01.374Z,225.00
2022-11-07T07:53:06.214Z,241.88
2022-11-07T07:54:02.359Z,264.38
2022-11-07T07:55:01.346Z,286.88
2022-11-07T07:56:01.356Z,292.50
2022-11-07T07:57:01.322Z,298.12
2022-11-07T07:58:01.310Z,298.12
2022-11-07T07:59:01.469Z,303.75
2022-11-07T08:00:01.285Z,298.12
2022-11-07T08:01:01.345Z,292.50
2022-11-07T08:02:01.377Z,286.88
2022-11-07T08:03:01.246Z,281.25
2022-11-07T08:04:02.503Z,286.88
2022-11-07T08:05:01.228Z,281.25
2022-11-07T08:06:01.216Z,281.25
2022-11-07T08:07:01.205Z,286.88
2022-11-07T08:08:01.195Z,298.12
2022-11-07T08:09:01.189Z,315.00
2022-11-07T08:10:09.840Z,326.25
2022-11-07T08:11:02.155Z,315.00
2022-11-07T08:12:01.155Z,320.62
2022-11-07T08:13:01.137Z,320.62
2022-11-07T08:14:01.891Z,281.25
2022-11-07T08:15:01.126Z,275.62
2022-11-07T08:16:01.126Z,241.88
2022-11-07T08:17:01.087Z,236.25
2022-11-07T08:18:01.106Z,241.88
2022-11-07T08:19:01.066Z,270.00
2022-11-07T08:20:01.066Z,292.50
2022-11-07T08:21:01.056Z,303.75
2022-11-07T08:22:01.069Z,298.12
2022-11-07T08:23:01.018Z,298.12
2022-11-07T08:24:01.045Z,303.75
2022-11-07T08:25:01.007Z,309.38
2022-11-07T08:26:00.996Z,309.38
2022-11-07T08:27:00.986Z,303.75
2022-11-07T08:28:01.027Z,292.50
2022-11-07T08:29:00.958Z,264.38
2022-11-07T08:30:00.946Z,258.75
2022-11-07T08:31:00.939Z,253.12
2022-11-07T08:32:00.927Z,253.12
2022-11-07T08:33:00.908Z,247.50
2022-11-07T08:34:01.008Z,247.50
2022-11-07T08:35:00.888Z,241.88
2022-11-07T08:36:00.876Z,247.50
2022-11-07T08:37:00.866Z,241.88
2022-11-07T08:38:00.858Z,241.88
2022-11-07T08:39:00.867Z,236.25
2022-11-07T08:40:00.843Z,236.25
2022-11-07T08:41:00.824Z,230.62
2022-11-07T08:42:00.810Z,225.00
2022-11-07T08:43:00.798Z,230.62
2022-11-07T08:44:00.791Z,241.88
2022-11-07T08:45:00.797Z,253.12
2022-11-07T08:46:00.773Z,270.00
2022-11-07T08:47:04.417Z,281.25
2022-11-07T08:48:01.748Z,298.12
2022-11-07T08:49:00.737Z,315.00
2022-11-07T08:50:00.719Z,337.50
2022-11-07T08:51:00.727Z,343.12
2022-11-07T08:52:00.698Z,343.12
2022-11-07T08:53:03.098Z,337.50
2022-11-07T08:54:00.678Z,337.50
2022-11-07T08:55:00.658Z,331.88
2022-11-07T08:56:00.655Z,326.25
2022-11-07T08:57:00.658Z,315.00
2022-11-07T08:58:00.642Z,303.75
2022-11-07T08:59:00.617Z,292.50
2022-11-07T09:00:00.610Z,275.62
2022-11-07T09:01:00.664Z,275.62
2022-11-07T09:02:57.342Z,292.50
2022-11-07T09:03:38.817Z,298.12
2022-11-07T09:04:01.749Z,303.75
2022-11-07T09:05:00.548Z,298.12
2022-11-07T09:06:00.548Z,298.12
2022-11-07T09:07:00.528Z,298.12
2022-11-07T09:08:00.519Z,281.25
2022-11-07T09:09:00.520Z,298.12
2022-11-07T09:10:00.506Z,337.50
2022-11-07T09:11:00.480Z,354.38
2022-11-07T09:12:00.473Z,337.50
2022-11-07T09:13:00.459Z,331.88
2022-11-07T09:14:00.499Z,365.62
2022-11-07T09:15:00.441Z,399.38
2022-11-07T09:16:00.438Z,438.75
2022-11-07T09:17:00.422Z,444.38
2022-11-07T09:18:00.409Z,455.62
2022-11-07T09:19:00.391Z,461.25
2022-11-07T09:20:00.403Z,455.62
2022-11-07T09:21:00.372Z,461.25
2022-11-07T09:22:00.369Z,472.50
2022-11-07T09:23:00.351Z,500.62
2022-11-07T09:24:00.340Z,517.50
2022-11-07T09:25:00.352Z,528.75
2022-11-07T09:26:00.329Z,534.38
2022-11-07T09:27:00.311Z,528.75
2022-11-07T09:28:00.306Z,517.50
2022-11-07T09:29:01.470Z,500.62
2022-11-07T09:30:00.281Z,483.75
2022-11-07T09:31:00.288Z,472.50
2022-11-07T09:32:11.903Z,461.25
2022-11-07T09:33:01.236Z,472.50
2022-11-07T09:34:00.229Z,489.38
2022-11-07T09:35:04.666Z,511.88
2022-11-07T09:36:01.232Z,517.50
2022-11-07T09:37:00.190Z,506.25
2022-11-07T09:38:00.193Z,466.88
2022-11-07T09:39:00.181Z,433.12
2022-11-07T09:40:00.217Z,405.00
2022-11-07T09:41:00.169Z,382.50
2022-11-07T09:42:00.191Z,382.50
2022-11-07T09:43:00.130Z,399.38
2022-11-07T09:44:00.122Z,421.88
2022-11-07T09:45:00.116Z,444.38
2022-11-07T09:46:00.106Z,461.25
2022-11-07T09:47:00.087Z,466.88
2022-11-07T09:48:00.092Z,472.50
2022-11-07T09:49:00.060Z,478.12
2022-11-07T09:50:00.054Z,478.12
2022-11-07T09:51:00.035Z,483.75
2022-11-07T09:52:00.042Z,489.38
2022-11-07T09:53:00.021Z,495.00
2022-11-07T09:54:00.039Z,495.00
2022-11-07T09:54:59.991Z,506.25
2022-11-07T09:55:59.982Z,506.25
2022-11-07T09:56:59.974Z,500.62
2022-11-07T09:57:59.962Z,489.38
2022-11-07T09:58:59.943Z,489.38
2022-11-07T09:59:59.953Z,495.00
2022-11-07T10:00:59.996Z,495.00
2022-11-07T10:01:59.939Z,495.00
2022-11-07T10:02:59.917Z,506.25
2022-11-07T10:05:00.893Z,523.12
2022-11-07T10:05:59.871Z,528.75
2022-11-07T10:06:59.854Z,517.50
2022-11-07T10:07:59.865Z,517.50
2022-11-07T10:08:59.831Z,534.38
2022-11-07T10:10:00.080Z,551.25
2022-11-07T10:10:59.804Z,551.25
2022-11-07T10:11:59.803Z,540.00
2022-11-07T10:12:59.783Z,523.12
2022-11-07T10:13:59.774Z,500.62
2022-11-07T10:14:59.763Z,495.00
2022-11-07T10:15:59.773Z,495.00
2022-11-07T10:16:59.744Z,506.25
2022-11-07T10:17:59.733Z,523.12
2022-11-07T10:18:59.722Z,528.75
2022-11-07T10:19:59.704Z,534.38
2022-11-07T10:21:22.945Z,545.62
2022-11-07T10:22:00.682Z,540.00
2022-11-07T10:22:59.674Z,534.38
2022-11-07T10:23:59.654Z,523.12
2022-11-07T10:24:59.657Z,511.88
2022-11-07T10:25:59.745Z,495.00
2022-11-07T10:26:59.661Z,489.38
2022-11-07T10:27:59.615Z,483.75
2022-11-07T10:28:59.604Z,489.38
2022-11-07T10:29:59.595Z,495.00
2022-11-07T10:30:59.585Z,455.62
2022-11-07T10:31:59.585Z,438.75
2022-11-07T10:32:59.554Z,450.00
2022-11-07T10:33:59.569Z,438.75
2022-11-07T10:34:59.535Z,433.12
2022-11-07T10:35:59.525Z,421.88
2022-11-07T10:36:59.515Z,393.75
2022-11-07T10:37:59.516Z,399.38
2022-11-07T10:38:59.495Z,399.38
2022-11-07T10:39:59.495Z,399.38
2022-11-07T10:40:59.469Z,399.38
2022-11-07T10:41:59.455Z,416.25
2022-11-07T10:42:59.496Z,438.75
2022-11-07T10:43:59.435Z,433.12
2022-11-07T10:44:59.429Z,427.50
2022-11-07T10:45:59.416Z,421.88
2022-11-07T10:46:59.417Z,410.62
2022-11-07T10:47:59.417Z,410.62
2022-11-07T10:48:59.404Z,399.38
2022-11-07T10:49:59.366Z,393.75
2022-11-07T10:50:59.357Z,376.88
2022-11-07T10:51:59.345Z,376.88
2022-11-07T10:52:59.338Z,354.38
2022-11-07T10:53:59.327Z,326.25
2022-11-07T10:54:59.327Z,292.50
2022-11-07T10:55:59.297Z,281.25
2022-11-07T10:56:59.297Z,281.25
2022-11-07T10:57:59.277Z,253.12
2022-11-07T10:58:59.265Z,241.88
2022-11-07T10:59:59.268Z,258.75
2022-11-07T11:00:59.294Z,270.00
2022-11-07T11:01:59.268Z,281.25
2022-11-07T11:02:59.217Z,292.50
2022-11-07T11:03:59.208Z,298.12
2022-11-07T11:04:59.197Z,303.75
2022-11-07T11:05:59.208Z,331.88
2022-11-07T11:06:59.179Z,348.75
2022-11-07T11:07:59.178Z,326.25
2022-11-07T11:08:59.160Z,298.12
2022-11-07T11:09:59.139Z,275.62
2022-11-07T11:10:59.131Z,270.00
2022-11-07T11:11:59.129Z,303.75
2022-11-07T11:12:59.110Z,331.88
2022-11-07T11:13:59.089Z,337.50
2022-11-07T11:14:59.080Z,315.00
2022-11-07T11:16:04.291Z,298.12
2022-11-07T11:17:00.107Z,365.62
2022-11-07T11:17:59.048Z,433.12
2022-11-07T11:18:59.038Z,461.25
2022-11-07T11:19:59.040Z,478.12
2022-11-07T11:20:59.010Z,495.00
2022-11-07T11:21:59.008Z,506.25
2022-11-07T11:22:59.020Z,534.38
2022-11-07T11:23:58.970Z,562.50
2022-11-07T11:24:58.973Z,556.88
2022-11-07T11:25:58.951Z,585.00
2022-11-07T11:26:58.941Z,528.75
2022-11-07T11:27:58.939Z,506.25
2022-11-07T11:28:59.032Z,489.38
2022-11-07T11:29:59.018Z,483.75
2022-11-07T11:30:58.905Z,472.50
2022-11-07T11:31:58.891Z,450.00
2022-11-07T11:32:58.881Z,455.62
2022-11-07T11:33:58.955Z,455.62
2022-11-07T11:34:58.881Z,466.88
2022-11-07T11:35:58.870Z,444.38
2022-11-07T11:36:58.843Z,376.88
2022-11-07T11:37:58.853Z,360.00
2022-11-07T11:38:58.842Z,376.88
2022-11-07T11:39:58.832Z,365.62
2022-11-07T11:41:06.107Z,376.88
2022-11-07T11:41:59.784Z,365.62
2022-11-07T11:42:58.798Z,354.38
2022-11-07T11:43:58.753Z,382.50
2022-11-07T11:44:58.755Z,416.25
2022-11-07T11:45:58.771Z,466.88
2022-11-07T11:46:58.723Z,495.00
2022-11-07T11:47:59.499Z,489.38
2022-11-07T11:48:58.731Z,450.00
2022-11-07T11:49:58.695Z,421.88
2022-11-07T11:50:58.734Z,433.12
2022-11-07T11:51:58.674Z,393.75
2022-11-07T11:52:58.764Z,472.50
2022-11-07T11:53:58.686Z,461.25
2022-11-07T11:54:58.744Z,438.75
2022-11-07T11:55:58.653Z,416.25
2022-11-07T11:56:58.735Z,405.00
2022-11-07T11:57:58.670Z,371.25
2022-11-07T11:58:58.584Z,365.62
2022-11-07T11:59:58.636Z,365.62
2022-11-07T12:00:58.635Z,348.75
2022-11-07T12:01:58.621Z,337.50
2022-11-07T12:02:58.903Z,326.25
2022-11-07T12:04:08.109Z,320.62
2022-11-07T12:04:58.560Z,303.75
2022-11-07T12:05:58.518Z,315.00
2022-11-07T12:06:58.523Z,354.38
2022-11-07T12:07:58.486Z,410.62
2022-11-07T12:08:58.498Z,438.75
2022-11-07T12:09:58.457Z,461.25
2022-11-07T12:10:58.450Z,466.88
2022-11-07T12:11:58.439Z,450.00
2022-11-07T12:12:58.427Z,438.75
2022-11-07T12:13:58.436Z,410.62
2022-11-07T12:14:58.424Z,376.88
2022-11-07T12:15:58.398Z,376.88
2022-11-07T12:16:58.377Z,410.62
2022-11-07T12:17:58.375Z,416.25
2022-11-07T12:18:58.360Z,405.00
2022-11-07T12:19:58.370Z,405.00
2022-11-07T12:20:58.338Z,393.75
2022-11-07T12:21:58.326Z,405.00
2022-11-07T12:22:58.317Z,388.12
2022-11-07T12:23:58.300Z,376.88
2022-11-07T12:24:58.319Z,354.38
2022-11-07T12:25:58.290Z,354.38
2022-11-07T12:26:58.324Z,371.25
2022-11-07T12:27:58.271Z,393.75
2022-11-07T12:28:58.252Z,421.88
2022-11-07T12:29:58.229Z,433.12
2022-11-07T12:30:58.263Z,410.62
2022-11-07T12:31:58.214Z,433.12
2022-11-07T12:32:58.210Z,444.38
2022-11-07T12:33:58.192Z,461.25
2022-11-07T12:34:58.179Z,483.75
2022-11-07T12:35:58.173Z,478.12
2022-11-07T12:36:58.180Z,455.62
2022-11-07T12:37:58.139Z,444.38
2022-11-07T12:38:58.137Z,444.38
2022-11-07T12:39:58.122Z,461.25
2022-11-07T12:40:58.123Z,472.50
2022-11-07T12:41:58.101Z,416.25
2022-11-07T12:43:00.077Z,393.75
2022-11-07T12:43:58.080Z,405.00
2022-11-07T12:44:58.074Z,382.50
2022-11-07T12:45:58.051Z,376.88
2022-11-07T12:46:58.050Z,388.12
2022-11-07T12:47:58.032Z,354.38
2022-11-07T12:48:58.080Z,348.75
2022-11-07T12:49:58.012Z,371.25
2022-11-07T12:50:58.011Z,343.12
2022-11-07T12:51:57.992Z,348.75
2022-11-07T12:52:57.981Z,365.62
2022-11-07T12:53:57.972Z,354.38
2022-11-07T12:54:57.983Z,371.25